Skip Navigation Links Skip Navigation Links

Current Weather

Heathrow, London

For information only: do not use for flight planning or navigation.
Latest weather
Observation time Monday, December 16, 2019 8:50 AM GMT
Local time Monday, December 16, 2019 9:03 AM GMT
Flight conditions Visual Meteorological Conditions
Winds
Wind direction South-Southwest (200°)
Winds variable from 170° to 260°
Wind speed 7 mph
Visibility 6.2 mi.
Sky condition
Ceiling unlimited
Temperature 45°F
Dewpoint 41°F
Altimeter 29.56 in.Hg
Derived measurements
Relative humidity 87%
Wind chill 41°F
Density altitude -417 ft.
Remarks
Corrected report.
Fully automated report.
No significant changes expected in the next two hours.
METAR COR EGLL 160850Z AUTO 20006KT 170V260 9999 NCD 07/05 Q1001 NOSIG

Settings

Location code

InnerDrive.Weather 4.0.6770.0 Release CLR 4.0.30319.42000
Copyright ©2018 Inner Drive Technology. All rights reserved. Portions Copyright ©1986-2018 David Braverman.

Find weather

Site navigation


Skip Navigation Links

Place info

Page info

PayPal - The safer, easier way to pay online!

Return home.

Copyright ©2019 Inner Drive Technology. Purveyors of fine, hand-crafted computer software. Page printed 2019-12-16T09:03:42 UTC.